sensor_id;sensor_type;location;lat;lon;timestamp;P1;durP1;ratioP1;P2;durP2;ratioP2
25437;SDS011;13364;49.084;9.978;2023-05-07T00:02:20;3.70;;;2.40;;
25437;SDS011;13364;49.084;9.978;2023-05-07T00:04:48;3.33;;;2.58;;
25437;SDS011;13364;49.084;9.978;2023-05-07T00:07:15;3.40;;;2.47;;
25437;SDS011;13364;49.084;9.978;2023-05-07T00:09:42;3.28;;;2.42;;
25437;SDS011;13364;49.084;9.978;2023-05-07T00:12:10;2.67;;;2.45;;
25437;SDS011;13364;49.084;9.978;2023-05-07T00:14:37;3.05;;;2.75;;
25437;SDS011;13364;49.084;9.978;2023-05-07T00:17:04;3.22;;;2.45;;
25437;SDS011;13364;49.084;9.978;2023-05-07T00:19:31;3.08;;;2.50;;
25437;SDS011;13364;49.084;9.978;2023-05-07T00:25:01;4.45;;;3.00;;
25437;SDS011;13364;49.084;9.978;2023-05-07T00:27:28;4.60;;;2.60;;
25437;SDS011;13364;49.084;9.978;2023-05-07T00:29:56;4.00;;;2.88;;
25437;SDS011;13364;49.084;9.978;2023-05-07T00:32:23;3.15;;;2.85;;
25437;SDS011;13364;49.084;9.978;2023-05-07T00:34:50;4.30;;;2.75;;
25437;SDS011;13364;49.084;9.978;2023-05-07T00:37:17;4.57;;;2.75;;
25437;SDS011;13364;49.084;9.978;2023-05-07T00:39:44;4.43;;;3.20;;
25437;SDS011;13364;49.084;9.978;2023-05-07T00:42:11;3.60;;;3.20;;
25437;SDS011;13364;49.084;9.978;2023-05-07T00:44:38;4.60;;;3.13;;
25437;SDS011;13364;49.084;9.978;2023-05-07T00:47:05;3.45;;;3.15;;
25437;SDS011;13364;49.084;9.978;2023-05-07T00:49:39;4.00;;;2.80;;
25437;SDS011;13364;49.084;9.978;2023-05-07T00:52:13;3.42;;;3.00;;
25437;SDS011;13364;49.084;9.978;2023-05-07T00:54:41;3.70;;;3.40;;
25437;SDS011;13364;49.084;9.978;2023-05-07T00:57:09;3.72;;;3.17;;
25437;SDS011;13364;49.084;9.978;2023-05-07T00:59:39;3.63;;;3.33;;
25437;SDS011;13364;49.084;9.978;2023-05-07T01:02:07;3.63;;;3.33;;
25437;SDS011;13364;49.084;9.978;2023-05-07T01:04:35;3.22;;;2.92;;
25437;SDS011;13364;49.084;9.978;2023-05-07T01:07:03;6.40;;;3.20;;
25437;SDS011;13364;49.084;9.978;2023-05-07T01:09:32;3.83;;;3.10;;
25437;SDS011;13364;49.084;9.978;2023-05-07T01:12:01;3.22;;;2.92;;
25437;SDS011;13364;49.084;9.978;2023-05-07T01:14:30;4.23;;;3.27;;
25437;SDS011;13364;49.084;9.978;2023-05-07T01:16:59;5.10;;;3.50;;
25437;SDS011;13364;49.084;9.978;2023-05-07T01:19:26;4.10;;;3.28;;
25437;SDS011;13364;49.084;9.978;2023-05-07T01:22:00;5.57;;;3.47;;
25437;SDS011;13364;49.084;9.978;2023-05-07T01:24:36;5.10;;;3.22;;
25437;SDS011;13364;49.084;9.978;2023-05-07T01:27:06;3.40;;;2.85;;
25437;SDS011;13364;49.084;9.978;2023-05-07T01:29:35;4.00;;;3.27;;
25437;SDS011;13364;49.084;9.978;2023-05-07T01:32:02;3.92;;;3.15;;
25437;SDS011;13364;49.084;9.978;2023-05-07T01:34:32;3.38;;;3.08;;
25437;SDS011;13364;49.084;9.978;2023-05-07T01:37:02;4.72;;;3.70;;
25437;SDS011;13364;49.084;9.978;2023-05-07T01:39:29;4.70;;;3.42;;
25437;SDS011;13364;49.084;9.978;2023-05-07T01:41:57;4.15;;;3.40;;
25437;SDS011;13364;49.084;9.978;2023-05-07T01:44:26;9.13;;;3.65;;
25437;SDS011;13364;49.084;9.978;2023-05-07T01:46:54;5.75;;;3.70;;
25437;SDS011;13364;49.084;9.978;2023-05-07T01:49:21;5.05;;;3.45;;
25437;SDS011;13364;49.084;9.978;2023-05-07T01:54:42;6.80;;;3.67;;
25437;SDS011;13364;49.084;9.978;2023-05-07T01:57:09;6.70;;;3.63;;
25437;SDS011;13364;49.084;9.978;2023-05-07T01:59:36;4.43;;;3.42;;
25437;SDS011;13364;49.084;9.978;2023-05-07T02:02:03;5.75;;;3.63;;
25437;SDS011;13364;49.084;9.978;2023-05-07T02:04:32;4.15;;;3.78;;
25437;SDS011;13364;49.084;9.978;2023-05-07T02:06:59;6.10;;;3.55;;
25437;SDS011;13364;49.084;9.978;2023-05-07T02:09:26;4.30;;;3.60;;
25437;SDS011;13364;49.084;9.978;2023-05-07T02:11:53;6.40;;;3.75;;
25437;SDS011;13364;49.084;9.978;2023-05-07T02:14:21;4.28;;;3.88;;
25437;SDS011;13364;49.084;9.978;2023-05-07T02:16:48;5.57;;;3.95;;
25437;SDS011;13364;49.084;9.978;2023-05-07T02:19:16;4.40;;;3.80;;
25437;SDS011;13364;49.084;9.978;2023-05-07T02:21:44;4.38;;;3.97;;
25437;SDS011;13364;49.084;9.978;2023-05-07T02:24:11;4.85;;;4.13;;
25437;SDS011;13364;49.084;9.978;2023-05-07T02:26:39;6.95;;;3.47;;
25437;SDS011;13364;49.084;9.978;2023-05-07T02:29:06;4.13;;;3.63;;
25437;SDS011;13364;49.084;9.978;2023-05-07T02:31:34;4.43;;;3.70;;
25437;SDS011;13364;49.084;9.978;2023-05-07T02:34:01;5.57;;;3.67;;
25437;SDS011;13364;49.084;9.978;2023-05-07T02:36:28;5.38;;;3.80;;
25437;SDS011;13364;49.084;9.978;2023-05-07T02:39:09;5.95;;;4.13;;
25437;SDS011;13364;49.084;9.978;2023-05-07T02:41:36;4.97;;;4.28;;
25437;SDS011;13364;49.084;9.978;2023-05-07T02:44:03;4.50;;;4.10;;
25437;SDS011;13364;49.084;9.978;2023-05-07T02:46:31;5.50;;;4.15;;
25437;SDS011;13364;49.084;9.978;2023-05-07T02:49:02;5.80;;;3.70;;
25437;SDS011;13364;49.084;9.978;2023-05-07T02:51:29;4.57;;;3.42;;
25437;SDS011;13364;49.084;9.978;2023-05-07T02:54:00;5.03;;;3.42;;
25437;SDS011;13364;49.084;9.978;2023-05-07T02:56:28;5.35;;;3.35;;
25437;SDS011;13364;49.084;9.978;2023-05-07T02:58:55;3.95;;;3.60;;
25437;SDS011;13364;49.084;9.978;2023-05-07T03:01:26;5.28;;;3.85;;
25437;SDS011;13364;49.084;9.978;2023-05-07T03:03:59;7.57;;;3.67;;
25437;SDS011;13364;49.084;9.978;2023-05-07T03:06:26;7.65;;;4.05;;
25437;SDS011;13364;49.084;9.978;2023-05-07T03:08:53;4.28;;;3.88;;
25437;SDS011;13364;49.084;9.978;2023-05-07T03:11:20;4.70;;;4.18;;
25437;SDS011;13364;49.084;9.978;2023-05-07T03:13:47;4.07;;;3.70;;
25437;SDS011;13364;49.084;9.978;2023-05-07T03:16:17;6.25;;;3.72;;
25437;SDS011;13364;49.084;9.978;2023-05-07T03:18:44;4.18;;;3.55;;
25437;SDS011;13364;49.084;9.978;2023-05-07T03:21:12;4.53;;;3.92;;
25437;SDS011;13364;49.084;9.978;2023-05-07T03:23:38;5.07;;;3.97;;
25437;SDS011;13364;49.084;9.978;2023-05-07T03:26:06;5.15;;;3.50;;
25437;SDS011;13364;49.084;9.978;2023-05-07T03:28:34;3.65;;;3.28;;
25437;SDS011;13364;49.084;9.978;2023-05-07T03:31:04;4.65;;;3.95;;
25437;SDS011;13364;49.084;9.978;2023-05-07T03:33:35;4.07;;;3.67;;
25437;SDS011;13364;49.084;9.978;2023-05-07T03:36:05;4.95;;;3.35;;
25437;SDS011;13364;49.084;9.978;2023-05-07T03:38:32;5.18;;;3.30;;
25437;SDS011;13364;49.084;9.978;2023-05-07T03:41:00;4.57;;;4.00;;
25437;SDS011;13364;49.084;9.978;2023-05-07T03:43:27;4.70;;;3.78;;
25437;SDS011;13364;49.084;9.978;2023-05-07T03:46:02;6.68;;;3.88;;
25437;SDS011;13364;49.084;9.978;2023-05-07T03:48:29;6.57;;;4.00;;
25437;SDS011;13364;49.084;9.978;2023-05-07T03:50:58;4.53;;;3.92;;
25437;SDS011;13364;49.084;9.978;2023-05-07T03:53:29;7.57;;;4.80;;
25437;SDS011;13364;49.084;9.978;2023-05-07T03:55:56;5.53;;;3.78;;
25437;SDS011;13364;49.084;9.978;2023-05-07T03:58:24;5.50;;;4.53;;
25437;SDS011;13364;49.084;9.978;2023-05-07T04:00:54;6.93;;;4.55;;
25437;SDS011;13364;49.084;9.978;2023-05-07T04:03:25;7.07;;;4.57;;
25437;SDS011;13364;49.084;9.978;2023-05-07T04:05:56;5.78;;;3.95;;
25437;SDS011;13364;49.084;9.978;2023-05-07T04:08:23;7.57;;;4.57;;
25437;SDS011;13364;49.084;9.978;2023-05-07T04:10:56;5.50;;;4.25;;
25437;SDS011;13364;49.084;9.978;2023-05-07T04:13:27;5.72;;;4.25;;
25437;SDS011;13364;49.084;9.978;2023-05-07T04:15:56;4.72;;;4.22;;
25437;SDS011;13364;49.084;9.978;2023-05-07T04:18:24;9.75;;;4.75;;
25437;SDS011;13364;49.084;9.978;2023-05-07T04:20:51;7.60;;;4.82;;
25437;SDS011;13364;49.084;9.978;2023-05-07T04:23:19;6.18;;;4.82;;
25437;SDS011;13364;49.084;9.978;2023-05-07T04:25:47;6.45;;;4.68;;
25437;SDS011;13364;49.084;9.978;2023-05-07T04:28:29;5.60;;;4.50;;
25437;SDS011;13364;49.084;9.978;2023-05-07T04:30:57;5.47;;;4.25;;
25437;SDS011;13364;49.084;9.978;2023-05-07T04:33:25;5.53;;;4.32;;
25437;SDS011;13364;49.084;9.978;2023-05-07T04:35:52;5.50;;;4.13;;
25437;SDS011;13364;49.084;9.978;2023-05-07T04:38:19;4.90;;;4.38;;
25437;SDS011;13364;49.084;9.978;2023-05-07T04:40:49;4.78;;;4.18;;
25437;SDS011;13364;49.084;9.978;2023-05-07T04:43:19;5.20;;;4.40;;
25437;SDS011;13364;49.084;9.978;2023-05-07T04:45:49;5.30;;;4.70;;
25437;SDS011;13364;49.084;9.978;2023-05-07T04:48:20;6.68;;;4.40;;
25437;SDS011;13364;49.084;9.978;2023-05-07T04:50:49;5.72;;;4.40;;
25437;SDS011;13364;49.084;9.978;2023-05-07T04:53:17;4.80;;;4.30;;
25437;SDS011;13364;49.084;9.978;2023-05-07T04:55:45;5.20;;;4.18;;
25437;SDS011;13364;49.084;9.978;2023-05-07T04:58:12;5.75;;;4.47;;
25437;SDS011;13364;49.084;9.978;2023-05-07T05:00:41;6.47;;;4.00;;
25437;SDS011;13364;49.084;9.978;2023-05-07T05:03:09;5.15;;;4.65;;
25437;SDS011;13364;49.084;9.978;2023-05-07T05:05:37;6.70;;;5.18;;
25437;SDS011;13364;49.084;9.978;2023-05-07T05:10:52;5.72;;;4.63;;
25437;SDS011;13364;49.084;9.978;2023-05-07T05:13:19;6.85;;;5.32;;
25437;SDS011;13364;49.084;9.978;2023-05-07T05:15:46;6.25;;;4.55;;
25437;SDS011;13364;49.084;9.978;2023-05-07T05:18:14;6.18;;;5.13;;
25437;SDS011;13364;49.084;9.978;2023-05-07T05:20:41;7.95;;;5.28;;
25437;SDS011;13364;49.084;9.978;2023-05-07T05:23:08;5.90;;;4.75;;
25437;SDS011;13364;49.084;9.978;2023-05-07T05:25:36;6.57;;;5.13;;
25437;SDS011;13364;49.084;9.978;2023-05-07T05:28:07;5.63;;;4.78;;
25437;SDS011;13364;49.084;9.978;2023-05-07T05:30:34;6.40;;;4.97;;
25437;SDS011;13364;49.084;9.978;2023-05-07T05:33:01;6.50;;;5.18;;
25437;SDS011;13364;49.084;9.978;2023-05-07T05:35:29;7.10;;;4.50;;
25437;SDS011;13364;49.084;9.978;2023-05-07T05:37:59;6.90;;;4.65;;
25437;SDS011;13364;49.084;9.978;2023-05-07T05:40:26;5.65;;;4.82;;
25437;SDS011;13364;49.084;9.978;2023-05-07T05:42:53;5.78;;;4.75;;
25437;SDS011;13364;49.084;9.978;2023-05-07T05:45:21;6.85;;;5.45;;
25437;SDS011;13364;49.084;9.978;2023-05-07T05:47:48;5.38;;;4.80;;
25437;SDS011;13364;49.084;9.978;2023-05-07T05:50:17;8.23;;;4.38;;
25437;SDS011;13364;49.084;9.978;2023-05-07T05:52:44;6.15;;;5.07;;
25437;SDS011;13364;49.084;9.978;2023-05-07T05:55:11;6.25;;;4.10;;
25437;SDS011;13364;49.084;9.978;2023-05-07T05:57:38;5.65;;;4.72;;
25437;SDS011;13364;49.084;9.978;2023-05-07T06:00:06;10.80;;;5.97;;
25437;SDS011;13364;49.084;9.978;2023-05-07T06:02:43;9.35;;;6.70;;
25437;SDS011;13364;49.084;9.978;2023-05-07T06:05:16;6.88;;;5.88;;
25437;SDS011;13364;49.084;9.978;2023-05-07T06:07:44;9.05;;;6.20;;
25437;SDS011;13364;49.084;9.978;2023-05-07T06:10:11;6.10;;;5.32;;
25437;SDS011;13364;49.084;9.978;2023-05-07T06:12:39;6.05;;;5.45;;
25437;SDS011;13364;49.084;9.978;2023-05-07T06:15:11;6.82;;;5.28;;
25437;SDS011;13364;49.084;9.978;2023-05-07T06:17:40;7.70;;;5.40;;
25437;SDS011;13364;49.084;9.978;2023-05-07T06:20:08;7.35;;;4.82;;
25437;SDS011;13364;49.084;9.978;2023-05-07T06:22:37;5.63;;;4.95;;
25437;SDS011;13364;49.084;9.978;2023-05-07T06:25:05;6.45;;;5.50;;
25437;SDS011;13364;49.084;9.978;2023-05-07T06:27:32;7.40;;;5.45;;
25437;SDS011;13364;49.084;9.978;2023-05-07T06:32:56;8.05;;;5.40;;
25437;SDS011;13364;49.084;9.978;2023-05-07T06:35:24;7.22;;;5.50;;
25437;SDS011;13364;49.084;9.978;2023-05-07T06:37:52;5.85;;;4.93;;
25437;SDS011;13364;49.084;9.978;2023-05-07T06:40:23;7.57;;;5.75;;
25437;SDS011;13364;49.084;9.978;2023-05-07T06:42:50;6.90;;;5.28;;
25437;SDS011;13364;49.084;9.978;2023-05-07T06:45:33;8.40;;;5.53;;
25437;SDS011;13364;49.084;9.978;2023-05-07T06:48:00;6.70;;;5.43;;
25437;SDS011;13364;49.084;9.978;2023-05-07T06:50:31;8.07;;;5.57;;
25437;SDS011;13364;49.084;9.978;2023-05-07T06:52:59;7.60;;;6.00;;
25437;SDS011;13364;49.084;9.978;2023-05-07T06:55:26;7.22;;;6.35;;
25437;SDS011;13364;49.084;9.978;2023-05-07T06:57:54;7.00;;;5.90;;
25437;SDS011;13364;49.084;9.978;2023-05-07T07:00:22;8.73;;;6.07;;
25437;SDS011;13364;49.084;9.978;2023-05-07T07:05:23;8.48;;;6.03;;
25437;SDS011;13364;49.084;9.978;2023-05-07T07:07:50;5.57;;;5.05;;
25437;SDS011;13364;49.084;9.978;2023-05-07T07:10:25;6.60;;;5.25;;
25437;SDS011;13364;49.084;9.978;2023-05-07T07:12:54;7.50;;;5.30;;
25437;SDS011;13364;49.084;9.978;2023-05-07T07:15:21;5.50;;;4.95;;
25437;SDS011;13364;49.084;9.978;2023-05-07T07:17:49;7.72;;;5.35;;
25437;SDS011;13364;49.084;9.978;2023-05-07T07:20:16;6.25;;;4.85;;
25437;SDS011;13364;49.084;9.978;2023-05-07T07:22:44;5.40;;;4.90;;
25437;SDS011;13364;49.084;9.978;2023-05-07T07:25:12;5.65;;;4.60;;
25437;SDS011;13364;49.084;9.978;2023-05-07T07:27:39;4.60;;;4.10;;
25437;SDS011;13364;49.084;9.978;2023-05-07T07:30:07;5.80;;;5.30;;
25437;SDS011;13364;49.084;9.978;2023-05-07T07:32:37;6.05;;;5.05;;
25437;SDS011;13364;49.084;9.978;2023-05-07T07:35:05;5.18;;;4.68;;
25437;SDS011;13364;49.084;9.978;2023-05-07T07:37:32;6.05;;;4.82;;
25437;SDS011;13364;49.084;9.978;2023-05-07T07:40:00;5.40;;;4.90;;
25437;SDS011;13364;49.084;9.978;2023-05-07T07:42:27;5.07;;;4.57;;
25437;SDS011;13364;49.084;9.978;2023-05-07T07:44:56;6.67;;;5.00;;
25437;SDS011;13364;49.084;9.978;2023-05-07T07:47:26;5.25;;;4.75;;
25437;SDS011;13364;49.084;9.978;2023-05-07T07:49:53;5.97;;;4.10;;
25437;SDS011;13364;49.084;9.978;2023-05-07T07:52:21;4.80;;;4.15;;
25437;SDS011;13364;49.084;9.978;2023-05-07T07:54:48;5.75;;;3.72;;
25437;SDS011;13364;49.084;9.978;2023-05-07T07:57:15;7.18;;;3.90;;
25437;SDS011;13364;49.084;9.978;2023-05-07T07:59:42;5.03;;;3.88;;
25437;SDS011;13364;49.084;9.978;2023-05-07T08:02:12;7.28;;;3.97;;
25437;SDS011;13364;49.084;9.978;2023-05-07T08:04:39;4.00;;;3.35;;
25437;SDS011;13364;49.084;9.978;2023-05-07T08:07:07;4.05;;;3.65;;
25437;SDS011;13364;49.084;9.978;2023-05-07T08:09:39;4.47;;;3.63;;
25437;SDS011;13364;49.084;9.978;2023-05-07T08:12:08;4.43;;;3.97;;
25437;SDS011;13364;49.084;9.978;2023-05-07T08:14:36;5.93;;;3.45;;
25437;SDS011;13364;49.084;9.978;2023-05-07T08:17:05;4.45;;;4.05;;
25437;SDS011;13364;49.084;9.978;2023-05-07T08:19:33;5.40;;;3.35;;
25437;SDS011;13364;49.084;9.978;2023-05-07T08:22:09;4.30;;;3.45;;
25437;SDS011;13364;49.084;9.978;2023-05-07T08:24:47;3.97;;;3.30;;
25437;SDS011;13364;49.084;9.978;2023-05-07T08:27:23;3.53;;;3.22;;
25437;SDS011;13364;49.084;9.978;2023-05-07T08:30:06;3.58;;;3.20;;
25437;SDS011;13364;49.084;9.978;2023-05-07T08:32:34;3.30;;;2.88;;
25437;SDS011;13364;49.084;9.978;2023-05-07T08:35:01;4.03;;;2.80;;
25437;SDS011;13364;49.084;9.978;2023-05-07T08:37:29;4.10;;;2.55;;
25437;SDS011;13364;49.084;9.978;2023-05-07T08:39:59;2.75;;;2.53;;
25437;SDS011;13364;49.084;9.978;2023-05-07T08:42:31;2.88;;;2.55;;
25437;SDS011;13364;49.084;9.978;2023-05-07T08:45:08;2.75;;;2.55;;
25437;SDS011;13364;49.084;9.978;2023-05-07T08:47:42;2.53;;;2.30;;
25437;SDS011;13364;49.084;9.978;2023-05-07T08:50:20;4.90;;;2.17;;
25437;SDS011;13364;49.084;9.978;2023-05-07T08:52:48;4.88;;;2.15;;
25437;SDS011;13364;49.084;9.978;2023-05-07T08:55:20;2.10;;;1.90;;
25437;SDS011;13364;49.084;9.978;2023-05-07T08:57:51;2.13;;;1.80;;
25437;SDS011;13364;49.084;9.978;2023-05-07T09:00:20;2.15;;;1.90;;
25437;SDS011;13364;49.084;9.978;2023-05-07T09:05:17;1.70;;;1.60;;
25437;SDS011;13364;49.084;9.978;2023-05-07T09:07:51;1.50;;;1.40;;
25437;SDS011;13364;49.084;9.978;2023-05-07T09:10:29;2.10;;;1.77;;
25437;SDS011;13364;49.084;9.978;2023-05-07T09:15:28;1.50;;;1.40;;
25437;SDS011;13364;49.084;9.978;2023-05-07T09:18:01;3.08;;;1.80;;
25437;SDS011;13364;49.084;9.978;2023-05-07T09:20:30;1.67;;;1.58;;
25437;SDS011;13364;49.084;9.978;2023-05-07T09:22:59;3.70;;;1.45;;
25437;SDS011;13364;49.084;9.978;2023-05-07T09:25:47;1.50;;;1.30;;
25437;SDS011;13364;49.084;9.978;2023-05-07T09:28:22;2.42;;;1.90;;
25437;SDS011;13364;49.084;9.978;2023-05-07T09:30:57;2.97;;;1.70;;
25437;SDS011;13364;49.084;9.978;2023-05-07T09:33:34;5.05;;;1.92;;
25437;SDS011;13364;49.084;9.978;2023-05-07T09:36:23;1.70;;;1.60;;
25437;SDS011;13364;49.084;9.978;2023-05-07T09:38:56;2.22;;;1.60;;
25437;SDS011;13364;49.084;9.978;2023-05-07T09:45:58;2.13;;;1.10;;
25437;SDS011;13364;49.084;9.978;2023-05-07T09:48:36;2.30;;;1.17;;
25437;SDS011;13364;49.084;9.978;2023-05-07T09:51:18;2.35;;;1.05;;
25437;SDS011;13364;49.084;9.978;2023-05-07T09:53:54;3.75;;;1.17;;
25437;SDS011;13364;49.084;9.978;2023-05-07T09:58:52;2.88;;;1.40;;
25437;SDS011;13364;49.084;9.978;2023-05-07T10:01:29;1.80;;;1.20;;
25437;SDS011;13364;49.084;9.978;2023-05-07T10:04:01;2.65;;;1.38;;
25437;SDS011;13364;49.084;9.978;2023-05-07T10:06:31;2.63;;;1.45;;
25437;SDS011;13364;49.084;9.978;2023-05-07T10:08:59;2.80;;;1.48;;
25437;SDS011;13364;49.084;9.978;2023-05-07T10:11:26;3.42;;;1.30;;
25437;SDS011;13364;49.084;9.978;2023-05-07T10:13:54;2.75;;;1.85;;
25437;SDS011;13364;49.084;9.978;2023-05-07T10:18:52;5.88;;;1.48;;
25437;SDS011;13364;49.084;9.978;2023-05-07T10:21:23;2.22;;;1.33;;
25437;SDS011;13364;49.084;9.978;2023-05-07T10:23:59;2.10;;;1.65;;
25437;SDS011;13364;49.084;9.978;2023-05-07T10:26:33;5.28;;;1.70;;
25437;SDS011;13364;49.084;9.978;2023-05-07T10:29:07;2.22;;;1.50;;
25437;SDS011;13364;49.084;9.978;2023-05-07T10:34:48;3.33;;;1.45;;
25437;SDS011;13364;49.084;9.978;2023-05-07T10:37:32;2.65;;;1.35;;
25437;SDS011;13364;49.084;9.978;2023-05-07T10:40:02;2.13;;;1.20;;
25437;SDS011;13364;49.084;9.978;2023-05-07T10:42:30;3.47;;;1.50;;
25437;SDS011;13364;49.084;9.978;2023-05-07T10:44:58;1.67;;;1.55;;
25437;SDS011;13364;49.084;9.978;2023-05-07T10:54:34;1.95;;;1.52;;
25437;SDS011;13364;49.084;9.978;2023-05-07T10:56:53;3.08;;;1.50;;
25437;SDS011;13364;49.084;9.978;2023-05-07T10:59:31;2.67;;;1.65;;
25437;SDS011;13364;49.084;9.978;2023-05-07T11:02:12;2.30;;;1.63;;
25437;SDS011;13364;49.084;9.978;2023-05-07T11:05:18;1.85;;;1.60;;
25437;SDS011;13364;49.084;9.978;2023-05-07T11:07:53;1.80;;;1.70;;
25437;SDS011;13364;49.084;9.978;2023-05-07T11:13:45;1.90;;;1.70;;
25437;SDS011;13364;49.084;9.978;2023-05-07T11:16:36;2.58;;;1.70;;
25437;SDS011;13364;49.084;9.978;2023-05-07T11:19:14;4.55;;;1.65;;
25437;SDS011;13364;49.084;9.978;2023-05-07T11:21:46;2.75;;;1.80;;
25437;SDS011;13364;49.084;9.978;2023-05-07T11:24:40;3.67;;;1.65;;
25437;SDS011;13364;49.084;9.978;2023-05-07T11:30:05;2.63;;;1.33;;
25437;SDS011;13364;49.084;9.978;2023-05-07T11:36:11;1.90;;;1.70;;
25437;SDS011;13364;49.084;9.978;2023-05-07T11:38:44;4.45;;;1.52;;
25437;SDS011;13364;49.084;9.978;2023-05-07T11:41:15;1.60;;;1.30;;
25437;SDS011;13364;49.084;9.978;2023-05-07T11:44:00;2.13;;;1.65;;
25437;SDS011;13364;49.084;9.978;2023-05-07T11:51:01;2.22;;;1.83;;
25437;SDS011;13364;49.084;9.978;2023-05-07T11:57:18;2.25;;;1.83;;
25437;SDS011;13364;49.084;9.978;2023-05-07T12:12:45;1.67;;;1.58;;
25437;SDS011;13364;49.084;9.978;2023-05-07T12:15:16;3.97;;;1.80;;
25437;SDS011;13364;49.084;9.978;2023-05-07T12:18:04;5.50;;;2.05;;
25437;SDS011;13364;49.084;9.978;2023-05-07T12:20:32;3.08;;;2.00;;
25437;SDS011;13364;49.084;9.978;2023-05-07T12:23:04;2.33;;;2.13;;
25437;SDS011;13364;49.084;9.978;2023-05-07T12:25:36;2.72;;;2.05;;
25437;SDS011;13364;49.084;9.978;2023-05-07T12:28:12;2.78;;;2.38;;
25437;SDS011;13364;49.084;9.978;2023-05-07T12:30:41;3.05;;;2.08;;
25437;SDS011;13364;49.084;9.978;2023-05-07T12:33:17;3.65;;;2.08;;
25437;SDS011;13364;49.084;9.978;2023-05-07T12:35:47;3.53;;;2.30;;
25437;SDS011;13364;49.084;9.978;2023-05-07T12:38:15;2.70;;;2.50;;
25437;SDS011;13364;49.084;9.978;2023-05-07T12:40:48;3.37;;;1.93;;
25437;SDS011;13364;49.084;9.978;2023-05-07T12:43:24;2.65;;;2.33;;
25437;SDS011;13364;49.084;9.978;2023-05-07T12:46:03;4.60;;;2.33;;
25437;SDS011;13364;49.084;9.978;2023-05-07T12:48:38;2.33;;;2.20;;
25437;SDS011;13364;49.084;9.978;2023-05-07T12:51:17;3.80;;;2.10;;
25437;SDS011;13364;49.084;9.978;2023-05-07T12:53:44;2.08;;;1.80;;
25437;SDS011;13364;49.084;9.978;2023-05-07T12:56:12;3.47;;;1.98;;
25437;SDS011;13364;49.084;9.978;2023-05-07T12:58:42;3.42;;;2.03;;
25437;SDS011;13364;49.084;9.978;2023-05-07T13:01:10;2.70;;;2.30;;
25437;SDS011;13364;49.084;9.978;2023-05-07T13:03:48;2.95;;;2.20;;
25437;SDS011;13364;49.084;9.978;2023-05-07T13:06:18;3.40;;;2.20;;
25437;SDS011;13364;49.084;9.978;2023-05-07T13:08:48;2.78;;;1.83;;
25437;SDS011;13364;49.084;9.978;2023-05-07T13:11:17;2.47;;;2.20;;
25437;SDS011;13364;49.084;9.978;2023-05-07T13:13:50;2.55;;;2.33;;
25437;SDS011;13364;49.084;9.978;2023-05-07T13:16:20;3.08;;;1.90;;
25437;SDS011;13364;49.084;9.978;2023-05-07T13:19:03;6.75;;;2.20;;
25437;SDS011;13364;49.084;9.978;2023-05-07T13:21:54;4.18;;;2.03;;
25437;SDS011;13364;49.084;9.978;2023-05-07T13:25:58;2.40;;;2.10;;
25437;SDS011;13364;49.084;9.978;2023-05-07T13:39:17;3.00;;;2.22;;
25437;SDS011;13364;49.084;9.978;2023-05-07T13:42:12;2.33;;;2.03;;
25437;SDS011;13364;49.084;9.978;2023-05-07T13:45:05;3.80;;;2.30;;
25437;SDS011;13364;49.084;9.978;2023-05-07T13:50:31;2.45;;;2.25;;
25437;SDS011;13364;49.084;9.978;2023-05-07T13:53:01;3.85;;;2.28;;
25437;SDS011;13364;49.084;9.978;2023-05-07T13:55:34;3.63;;;2.40;;
25437;SDS011;13364;49.084;9.978;2023-05-07T13:59:00;2.30;;;2.10;;
25437;SDS011;13364;49.084;9.978;2023-05-07T14:02:05;4.55;;;2.25;;
25437;SDS011;13364;49.084;9.978;2023-05-07T14:05:20;3.15;;;2.30;;
25437;SDS011;13364;49.084;9.978;2023-05-07T14:10:51;5.47;;;2.63;;
25437;SDS011;13364;49.084;9.978;2023-05-07T14:16:17;3.60;;;2.53;;
25437;SDS011;13364;49.084;9.978;2023-05-07T14:23:16;3.95;;;2.35;;
25437;SDS011;13364;49.084;9.978;2023-05-07T14:25:45;4.15;;;2.03;;
25437;SDS011;13364;49.084;9.978;2023-05-07T14:28:22;3.08;;;2.30;;
25437;SDS011;13364;49.084;9.978;2023-05-07T14:30:56;3.25;;;2.10;;
25437;SDS011;13364;49.084;9.978;2023-05-07T14:33:31;2.33;;;2.13;;
25437;SDS011;13364;49.084;9.978;2023-05-07T14:36:12;2.40;;;2.20;;
25437;SDS011;13364;49.084;9.978;2023-05-07T14:38:39;4.53;;;2.40;;
25437;SDS011;13364;49.084;9.978;2023-05-07T14:41:06;3.75;;;2.47;;
25437;SDS011;13364;49.084;9.978;2023-05-07T14:43:33;3.72;;;2.60;;
25437;SDS011;13364;49.084;9.978;2023-05-07T14:46:03;6.18;;;2.60;;
25437;SDS011;13364;49.084;9.978;2023-05-07T14:48:30;4.22;;;3.60;;
25437;SDS011;13364;49.084;9.978;2023-05-07T14:50:57;4.30;;;2.88;;
25437;SDS011;13364;49.084;9.978;2023-05-07T14:53:26;3.42;;;3.08;;
25437;SDS011;13364;49.084;9.978;2023-05-07T14:55:53;2.58;;;2.38;;
25437;SDS011;13364;49.084;9.978;2023-05-07T14:58:40;3.58;;;2.33;;
25437;SDS011;13364;49.084;9.978;2023-05-07T15:01:07;2.90;;;2.42;;
25437;SDS011;13364;49.084;9.978;2023-05-07T15:06:08;2.95;;;2.20;;
25437;SDS011;13364;49.084;9.978;2023-05-07T15:08:35;3.55;;;2.42;;
25437;SDS011;13364;49.084;9.978;2023-05-07T15:11:03;2.45;;;2.25;;
25437;SDS011;13364;49.084;9.978;2023-05-07T15:16:36;3.88;;;2.80;;
25437;SDS011;13364;49.084;9.978;2023-05-07T15:19:03;3.78;;;2.78;;
25437;SDS011;13364;49.084;9.978;2023-05-07T15:24:05;3.08;;;2.53;;
25437;SDS011;13364;49.084;9.978;2023-05-07T15:26:49;3.08;;;2.65;;
25437;SDS011;13364;49.084;9.978;2023-05-07T15:29:19;2.50;;;2.30;;
25437;SDS011;13364;49.084;9.978;2023-05-07T15:31:49;2.97;;;2.42;;
25437;SDS011;13364;49.084;9.978;2023-05-07T15:34:17;2.47;;;2.30;;
25437;SDS011;13364;49.084;9.978;2023-05-07T15:39:16;2.50;;;2.30;;
25437;SDS011;13364;49.084;9.978;2023-05-07T15:41:43;2.45;;;2.20;;
25437;SDS011;13364;49.084;9.978;2023-05-07T15:44:10;3.53;;;2.53;;
25437;SDS011;13364;49.084;9.978;2023-05-07T15:46:43;14.25;;;9.88;;
25437;SDS011;13364;49.084;9.978;2023-05-07T15:49:10;5.22;;;3.20;;
25437;SDS011;13364;49.084;9.978;2023-05-07T15:51:38;3.72;;;2.95;;
25437;SDS011;13364;49.084;9.978;2023-05-07T15:54:05;4.20;;;3.80;;
25437;SDS011;13364;49.084;9.978;2023-05-07T15:56:32;8.13;;;6.45;;
25437;SDS011;13364;49.084;9.978;2023-05-07T15:58:59;3.85;;;3.15;;
25437;SDS011;13364;49.084;9.978;2023-05-07T16:01:28;3.58;;;2.88;;
25437;SDS011;13364;49.084;9.978;2023-05-07T16:03:55;6.65;;;3.65;;
25437;SDS011;13364;49.084;9.978;2023-05-07T16:06:22;4.20;;;3.53;;
25437;SDS011;13364;49.084;9.978;2023-05-07T16:11:42;4.30;;;3.80;;
25437;SDS011;13364;49.084;9.978;2023-05-07T16:14:11;3.75;;;3.38;;
25437;SDS011;13364;49.084;9.978;2023-05-07T16:16:45;3.03;;;2.72;;
25437;SDS011;13364;49.084;9.978;2023-05-07T16:19:15;4.97;;;2.90;;
25437;SDS011;13364;49.084;9.978;2023-05-07T16:21:46;4.07;;;2.67;;
25437;SDS011;13364;49.084;9.978;2023-05-07T16:24:13;3.50;;;2.47;;
25437;SDS011;13364;49.084;9.978;2023-05-07T16:26:48;2.83;;;2.60;;
25437;SDS011;13364;49.084;9.978;2023-05-07T16:29:24;4.85;;;3.17;;
25437;SDS011;13364;49.084;9.978;2023-05-07T16:31:52;7.97;;;5.57;;
25437;SDS011;13364;49.084;9.978;2023-05-07T16:34:20;13.48;;;11.02;;
25437;SDS011;13364;49.084;9.978;2023-05-07T16:36:54;17.92;;;16.02;;
25437;SDS011;13364;49.084;9.978;2023-05-07T16:39:48;3.30;;;2.25;;
25437;SDS011;13364;49.084;9.978;2023-05-07T16:42:15;1.88;;;1.65;;
25437;SDS011;13364;49.084;9.978;2023-05-07T16:44:43;8.43;;;3.78;;
25437;SDS011;13364;49.084;9.978;2023-05-07T16:47:10;14.95;;;10.40;;
25437;SDS011;13364;49.084;9.978;2023-05-07T16:49:37;9.60;;;8.30;;
25437;SDS011;13364;49.084;9.978;2023-05-07T16:52:04;2.70;;;2.45;;
25437;SDS011;13364;49.084;9.978;2023-05-07T16:54:31;6.95;;;6.22;;
25437;SDS011;13364;49.084;9.978;2023-05-07T17:00:36;13.95;;;7.90;;
25437;SDS011;13364;49.084;9.978;2023-05-07T17:03:15;6.93;;;4.82;;